KOXR

Oxnard Airport

Oxnard, California, USA
METAR KOXR 241351Z 12006KT 10SM OVC021 18/14 A2989 RMK AO2 SLP120 T01830144
Observed Flight Rules
Jun-24 @ 13:51 UTC (an hour ago) Marginal Visual Flight Rules
Wind Visibility Clouds
120° at 6 knots 10 miles
  • Overcast at 2,100' AGL
Temperatures Readings
Current 18°C / 64°F
Dewpoint 14°C / 57°F
Humidity 78%
Altimeter 29.89" Hg
Pressure 1012 hPa
Elevation 20
METAR KOXR 241351Z 12006KT 10SM OVC021 18/14 A2989 RMK AO2 SLP120 T01830144
Observed Flight Rules
Jun-24 @ 13:51 UTC
(an hour ago)
MVFR
Wind Visibility
120° at 6 knots 10 miles
Clouds
  • Overcast at 2,100' AGL
Temperature Dewpoint
18°C / 64°F 14°C / 57°F
Humidity Altimeter Pressure
78% 29.89" Hg 1012 hPa